createdAt,value
2022-08-02T00:02:27.624Z,5.90
2022-08-02T00:05:00.785Z,5.70
2022-08-02T00:07:39.025Z,5.00
2022-08-02T00:10:15.200Z,5.10
2022-08-02T00:12:49.011Z,5.70
2022-08-02T00:15:22.375Z,5.30
2022-08-02T00:17:55.695Z,5.70
2022-08-02T00:20:29.040Z,6.10
2022-08-02T00:23:02.279Z,5.30
2022-08-02T00:25:35.570Z,5.80
2022-08-02T00:28:28.500Z,6.20
2022-08-02T00:31:02.805Z,5.70
2022-08-02T00:34:26.205Z,5.40
2022-08-02T00:36:29.737Z,5.50
2022-08-02T00:39:03.121Z,5.10
2022-08-02T00:41:46.983Z,5.40
2022-08-02T00:44:21.618Z,6.10
2022-08-02T00:46:55.511Z,5.60
2022-08-02T00:49:29.530Z,5.50
2022-08-02T00:52:03.373Z,5.50
2022-08-02T00:54:37.832Z,5.30
2022-08-02T00:57:11.587Z,5.40
2022-08-02T00:59:45.340Z,5.30
2022-08-02T01:02:18.963Z,6.50
2022-08-02T01:04:52.463Z,5.40
2022-08-02T01:07:26.393Z,5.90
2022-08-02T01:10:00.580Z,5.60
2022-08-02T01:12:34.480Z,5.10
2022-08-02T01:15:11.650Z,5.90
2022-08-02T01:17:50.774Z,6.60
2022-08-02T01:20:48.663Z,6.00
2022-08-02T01:23:47.233Z,6.70
2022-08-02T01:26:41.246Z,6.20
2022-08-02T01:29:20.774Z,6.40
2022-08-02T01:32:00.987Z,6.30
2022-08-02T01:34:39.583Z,6.30
2022-08-02T01:37:17.799Z,6.70
2022-08-02T01:39:57.394Z,6.10
2022-08-02T01:42:32.248Z,6.90
2022-08-02T01:45:08.184Z,6.30
2022-08-02T01:47:44.527Z,6.40
2022-08-02T01:50:19.758Z,6.80
2022-08-02T01:52:55.918Z,6.40
2022-08-02T01:55:57.061Z,6.50
2022-08-02T01:58:30.190Z,7.10
2022-08-02T02:01:06.017Z,6.00
2022-08-02T02:03:41.882Z,6.60
2022-08-02T02:06:16.931Z,7.30
2022-08-02T02:08:53.107Z,6.90
2022-08-02T02:12:10.220Z,7.40
2022-08-02T02:14:23.602Z,7.20
2022-08-02T02:16:59.008Z,7.60
2022-08-02T02:19:35.099Z,7.50
2022-08-02T02:22:08.810Z,7.50
2022-08-02T02:24:44.960Z,7.60
2022-08-02T02:27:23.181Z,7.60
2022-08-02T02:29:58.123Z,7.80
2022-08-02T02:32:32.675Z,7.60
2022-08-02T02:35:08.529Z,7.40
2022-08-02T02:37:45.083Z,7.30
2022-08-02T02:40:19.643Z,7.50
2022-08-02T02:42:53.852Z,7.60
2022-08-02T02:45:28.567Z,7.40
2022-08-02T02:48:04.069Z,7.40
2022-08-02T02:50:38.161Z,7.80
2022-08-02T02:53:12.387Z,7.90
2022-08-02T02:56:01.862Z,7.90
2022-08-02T02:58:37.041Z,7.70
2022-08-02T03:01:53.171Z,7.40
2022-08-02T03:04:22.698Z,7.20
2022-08-02T03:06:56.030Z,7.70
2022-08-02T03:09:29.899Z,7.90
2022-08-02T03:12:04.005Z,7.20
2022-08-02T03:14:42.107Z,7.50
2022-08-02T03:17:16.822Z,6.80
2022-08-02T03:19:50.296Z,7.50
2022-08-02T03:22:23.576Z,7.10
2022-08-02T03:24:57.377Z,7.50
2022-08-02T03:27:30.726Z,7.80
2022-08-02T03:30:04.166Z,6.50
2022-08-02T03:32:39.660Z,7.00
2022-08-02T03:35:22.953Z,7.20
2022-08-02T03:37:59.640Z,7.50
2022-08-02T03:40:34.194Z,7.60
2022-08-02T03:43:08.422Z,8.00
2022-08-02T03:45:45.009Z,7.00
2022-08-02T03:48:34.433Z,7.00
2022-08-02T03:51:09.537Z,7.90
2022-08-02T03:53:44.065Z,7.30
2022-08-02T03:56:18.650Z,7.40
2022-08-02T03:58:52.160Z,7.10
2022-08-02T04:01:25.413Z,7.90
2022-08-02T04:03:58.803Z,7.30
2022-08-02T04:06:32.163Z,7.90
2022-08-02T04:09:05.884Z,7.90
2022-08-02T04:11:39.208Z,7.30
2022-08-02T04:14:14.008Z,7.60
2022-08-02T04:16:50.246Z,7.00
2022-08-02T04:19:29.599Z,7.40
2022-08-02T04:22:05.198Z,6.90
2022-08-02T04:24:49.828Z,8.40
2022-08-02T04:27:51.322Z,8.30
2022-08-02T04:30:19.903Z,9.20
2022-08-02T04:32:54.123Z,8.60
2022-08-02T04:35:28.167Z,8.60
2022-08-02T04:38:08.601Z,7.80
2022-08-02T04:40:51.667Z,8.70
2022-08-02T04:43:26.243Z,9.20
2022-08-02T04:46:03.359Z,8.90
2022-08-02T04:48:37.035Z,8.40
2022-08-02T04:51:10.576Z,8.50
2022-08-02T04:53:43.968Z,8.00
2022-08-02T04:56:17.677Z,8.30
2022-08-02T04:58:50.971Z,8.20
2022-08-02T05:01:24.457Z,8.50
2022-08-02T05:03:57.876Z,9.10
2022-08-02T05:06:31.340Z,9.00
2022-08-02T05:09:04.884Z,8.20
2022-08-02T05:11:38.885Z,7.90
2022-08-02T05:14:12.652Z,8.30
2022-08-02T05:16:46.291Z,8.30
2022-08-02T05:19:19.748Z,8.70
2022-08-02T05:21:53.282Z,8.70
2022-08-02T05:24:26.363Z,9.40
2022-08-02T05:26:59.774Z,7.90
2022-08-02T05:29:33.731Z,8.30
2022-08-02T05:32:08.035Z,7.20
2022-08-02T05:34:41.694Z,6.90
2022-08-02T05:37:15.101Z,7.10
2022-08-02T05:39:55.577Z,7.10
2022-08-02T05:42:29.524Z,7.60
2022-08-02T05:45:03.399Z,6.50
2022-08-02T05:47:37.039Z,6.20
2022-08-02T05:50:12.330Z,5.90
2022-08-02T05:52:51.373Z,5.70
2022-08-02T05:55:29.305Z,5.80
2022-08-02T05:58:08.338Z,5.90
2022-08-02T06:00:43.725Z,6.00
2022-08-02T06:03:26.952Z,6.70
2022-08-02T06:06:08.048Z,5.70
2022-08-02T06:08:47.986Z,6.10
2022-08-02T06:11:26.150Z,7.00
2022-08-02T06:13:59.701Z,6.10
2022-08-02T06:16:41.970Z,4.90
2022-08-02T06:19:18.159Z,4.70
2022-08-02T06:22:37.543Z,5.00
2022-08-02T06:24:48.331Z,4.70
2022-08-02T06:27:23.365Z,5.00
2022-08-02T06:29:57.690Z,4.40
2022-08-02T06:32:32.880Z,4.50
2022-08-02T06:35:07.601Z,4.10
2022-08-02T06:37:46.482Z,4.60
2022-08-02T06:40:32.594Z,4.60
2022-08-02T06:43:19.813Z,4.70
2022-08-02T06:45:53.346Z,4.20
2022-08-02T06:48:27.402Z,4.30
2022-08-02T06:51:01.248Z,3.80
2022-08-02T06:53:35.380Z,3.90
2022-08-02T06:56:09.201Z,4.00
2022-08-02T06:58:43.055Z,4.60
2022-08-02T07:01:16.938Z,3.90
2022-08-02T07:03:50.296Z,3.40
2022-08-02T07:06:24.008Z,3.40
2022-08-02T07:09:19.528Z,3.40
2022-08-02T07:11:51.008Z,3.40
2022-08-02T07:14:24.587Z,3.10
2022-08-02T07:16:58.069Z,3.40
2022-08-02T07:19:37.647Z,3.70
2022-08-02T07:22:13.303Z,3.40
2022-08-02T07:24:46.852Z,3.10
2022-08-02T07:27:20.664Z,3.10
2022-08-02T07:29:54.554Z,3.40
2022-08-02T07:32:29.870Z,3.20
2022-08-02T07:35:06.823Z,3.10
2022-08-02T07:37:55.339Z,2.80
2022-08-02T07:40:35.520Z,3.20
2022-08-02T07:43:09.230Z,2.90
2022-08-02T07:45:45.655Z,2.70
2022-08-02T07:48:31.198Z,2.50
2022-08-02T07:51:05.509Z,2.90
2022-08-02T07:53:50.927Z,2.70
2022-08-02T07:56:32.971Z,2.80
2022-08-02T07:59:06.656Z,2.70
2022-08-02T08:01:40.657Z,2.40
2022-08-02T08:04:19.698Z,2.80
2022-08-02T08:06:54.491Z,3.00
2022-08-02T08:09:28.021Z,2.40
2022-08-02T08:12:01.873Z,3.10
2022-08-02T08:14:35.600Z,2.90
2022-08-02T08:17:09.256Z,3.00
2022-08-02T08:19:51.259Z,2.90
2022-08-02T08:22:25.890Z,2.90
2022-08-02T08:24:59.623Z,2.60
2022-08-02T08:27:33.565Z,2.90
2022-08-02T08:30:08.384Z,2.80
2022-08-02T08:32:42.251Z,2.90
2022-08-02T08:35:16.082Z,2.90
2022-08-02T08:37:49.868Z,3.30
2022-08-02T08:40:23.367Z,3.30
2022-08-02T08:42:56.970Z,3.40
2022-08-02T08:45:30.510Z,2.80
2022-08-02T08:48:08.253Z,3.00
2022-08-02T08:50:45.428Z,3.40
2022-08-02T08:53:20.465Z,3.30
2022-08-02T08:55:58.093Z,3.40
2022-08-02T08:58:31.979Z,2.90
2022-08-02T09:01:07.523Z,3.00
2022-08-02T09:03:41.329Z,2.80
2022-08-02T09:06:15.076Z,2.80
2022-08-02T09:08:48.619Z,2.90
2022-08-02T09:11:24.877Z,3.00
2022-08-02T09:14:00.397Z,3.00
2022-08-02T09:16:36.328Z,2.90
2022-08-02T09:19:24.202Z,3.10
2022-08-02T09:22:06.988Z,2.90
2022-08-02T09:24:49.925Z,3.10
2022-08-02T09:27:24.554Z,2.80
2022-08-02T09:30:11.972Z,3.10
2022-08-02T09:32:51.445Z,3.60
2022-08-02T09:36:05.816Z,3.30
2022-08-02T09:38:34.586Z,3.60
2022-08-02T09:41:21.363Z,3.60
2022-08-02T09:44:04.346Z,3.10
2022-08-02T09:46:41.823Z,3.50
2022-08-02T09:49:17.883Z,3.60
2022-08-02T09:51:57.199Z,3.40
2022-08-02T09:54:31.526Z,3.10
2022-08-02T09:57:05.573Z,3.50
2022-08-02T09:59:54.114Z,3.50
2022-08-02T10:02:28.442Z,3.20
2022-08-02T10:05:02.026Z,3.40
2022-08-02T10:07:36.337Z,3.00
2022-08-02T10:10:11.044Z,3.70
2022-08-02T10:12:44.341Z,3.90
2022-08-02T10:15:19.321Z,3.50
2022-08-02T10:18:12.900Z,3.90
2022-08-02T10:20:58.656Z,2.90
2022-08-02T10:23:35.985Z,3.10
2022-08-02T10:26:10.484Z,3.30
2022-08-02T10:28:44.368Z,3.40
2022-08-02T10:31:21.063Z,2.60
2022-08-02T10:33:56.109Z,3.60
2022-08-02T10:36:31.541Z,2.70
2022-08-02T10:39:05.769Z,3.60
2022-08-02T10:41:55.436Z,3.40
2022-08-02T10:44:31.973Z,3.10
2022-08-02T10:47:27.177Z,3.80
2022-08-02T10:50:04.116Z,3.10
2022-08-02T10:52:37.557Z,3.60
2022-08-02T10:55:22.139Z,3.40
2022-08-02T10:58:19.893Z,3.30
2022-08-02T11:00:54.158Z,4.60
2022-08-02T11:03:43.419Z,3.60
2022-08-02T11:06:25.389Z,3.30
2022-08-02T11:09:32.862Z,3.70
2022-08-02T11:12:08.732Z,5.00
2022-08-02T11:14:43.756Z,3.50
2022-08-02T11:17:18.537Z,4.50
2022-08-02T11:20:21.437Z,3.50
2022-08-02T11:22:57.143Z,3.90
2022-08-02T11:26:03.274Z,3.30
2022-08-02T11:28:32.237Z,4.50
2022-08-02T11:31:07.624Z,4.30
2022-08-02T11:33:41.525Z,4.20
2022-08-02T11:36:16.728Z,5.30
2022-08-02T11:38:50.605Z,5.70
2022-08-02T11:41:46.881Z,3.40
2022-08-02T11:44:18.473Z,4.00
2022-08-02T11:47:00.300Z,3.70
2022-08-02T11:52:08.463Z,3.30
2022-08-02T11:54:43.702Z,3.60
2022-08-02T11:57:20.879Z,3.60
2022-08-02T11:59:56.379Z,3.40
2022-08-02T12:02:33.003Z,3.30
2022-08-02T12:05:09.213Z,3.50
2022-08-02T12:07:46.111Z,3.20
2022-08-02T12:10:21.985Z,3.40
2022-08-02T12:12:57.475Z,3.40
2022-08-02T12:15:42.266Z,3.10
2022-08-02T12:18:34.311Z,2.70
2022-08-02T12:21:22.350Z,3.10
2022-08-02T12:24:00.584Z,2.80
2022-08-02T12:26:43.057Z,3.10
2022-08-02T12:29:58.918Z,3.40
2022-08-02T12:32:29.563Z,3.00
2022-08-02T12:35:09.850Z,3.40
2022-08-02T12:37:45.865Z,3.30
2022-08-02T12:40:25.930Z,3.10
2022-08-02T12:43:02.752Z,3.10
2022-08-02T12:48:37.359Z,3.10
2022-08-02T12:51:50.989Z,3.30
2022-08-02T12:54:30.691Z,2.80
2022-08-02T12:57:16.236Z,3.10
2022-08-02T12:59:54.224Z,3.40
2022-08-02T13:02:27.848Z,3.10
2022-08-02T13:05:04.425Z,3.00
2022-08-02T13:07:38.227Z,3.30
2022-08-02T13:10:12.616Z,3.30
2022-08-02T13:12:46.468Z,3.30
2022-08-02T13:15:48.890Z,3.50
2022-08-02T13:18:13.535Z,3.30
2022-08-02T13:20:47.341Z,3.20
2022-08-02T13:23:22.104Z,3.00
2022-08-02T13:25:55.534Z,3.10
2022-08-02T13:28:29.469Z,4.10
2022-08-02T13:31:20.602Z,4.10
2022-08-02T13:33:56.295Z,3.50
2022-08-02T13:36:29.629Z,3.90
2022-08-02T13:39:04.265Z,3.60
2022-08-02T13:41:37.404Z,3.30
2022-08-02T13:44:11.227Z,3.50
2022-08-02T13:46:46.170Z,3.10
2022-08-02T13:49:21.802Z,4.70
2022-08-02T13:52:14.349Z,3.20
2022-08-02T13:54:48.422Z,3.40
2022-08-02T13:57:21.915Z,3.00
2022-08-02T13:59:59.043Z,3.00
2022-08-02T14:02:37.272Z,3.50
2022-08-02T14:05:14.085Z,3.30
2022-08-02T14:07:47.139Z,4.30
2022-08-02T14:10:20.513Z,3.40
2022-08-02T14:12:56.555Z,3.00
2022-08-02T14:15:30.462Z,3.30
2022-08-02T14:18:03.911Z,3.20
2022-08-02T14:20:37.490Z,3.50
2022-08-02T14:23:11.263Z,3.40
2022-08-02T14:25:44.753Z,3.10
2022-08-02T14:28:18.488Z,3.50
2022-08-02T14:30:52.400Z,3.30
2022-08-02T14:33:26.269Z,3.50
2022-08-02T14:35:59.640Z,3.60
2022-08-02T14:38:33.124Z,3.40
2022-08-02T14:41:06.640Z,3.50
2022-08-02T14:43:58.007Z,3.40
2022-08-02T14:46:32.309Z,3.90
2022-08-02T14:49:07.998Z,3.70
2022-08-02T14:51:41.980Z,3.40
2022-08-02T14:54:15.338Z,3.00
2022-08-02T14:56:51.769Z,3.30
2022-08-02T14:59:25.391Z,3.10
2022-08-02T15:01:58.438Z,3.50
2022-08-02T15:04:42.421Z,3.20
2022-08-02T15:07:17.135Z,3.10
2022-08-02T15:09:50.491Z,3.40
2022-08-02T15:12:23.920Z,3.70
2022-08-02T15:14:57.421Z,3.60
2022-08-02T15:17:32.159Z,3.80
2022-08-02T15:20:24.731Z,4.00
2022-08-02T15:22:59.573Z,3.80
2022-08-02T15:25:33.199Z,3.30
2022-08-02T15:28:07.533Z,5.20
2022-08-02T15:30:41.530Z,4.80
2022-08-02T15:33:15.196Z,5.00
2022-08-02T15:35:48.920Z,3.60
2022-08-02T15:38:23.984Z,3.40
2022-08-02T15:40:57.493Z,3.50
2022-08-02T15:43:31.011Z,3.60
2022-08-02T15:46:04.751Z,3.50
2022-08-02T15:48:37.974Z,3.90
2022-08-02T15:51:12.038Z,3.90
2022-08-02T15:53:45.705Z,3.20
2022-08-02T15:56:24.299Z,3.60
2022-08-02T15:58:59.042Z,3.40
2022-08-02T16:01:37.788Z,3.60
2022-08-02T16:04:12.410Z,3.70
2022-08-02T16:06:46.423Z,3.30
2022-08-02T16:09:19.914Z,3.40
2022-08-02T16:11:53.281Z,3.20
2022-08-02T16:14:26.629Z,3.60
2022-08-02T16:17:00.137Z,3.80
2022-08-02T16:19:48.187Z,4.00
2022-08-02T16:22:22.477Z,4.90
2022-08-02T16:24:55.795Z,4.10
2022-08-02T16:27:29.289Z,4.00
2022-08-02T16:30:04.547Z,3.80
2022-08-02T16:32:37.517Z,3.90
2022-08-02T16:35:11.624Z,4.10
2022-08-02T16:37:51.925Z,4.20
2022-08-02T16:40:26.139Z,3.40
2022-08-02T16:43:00.411Z,3.80
2022-08-02T16:45:34.389Z,3.30
2022-08-02T16:48:09.387Z,4.10
2022-08-02T16:50:46.373Z,3.90
2022-08-02T16:53:37.053Z,3.50
2022-08-02T16:56:12.622Z,3.70
2022-08-02T16:58:48.150Z,3.50
2022-08-02T17:01:27.542Z,3.80
2022-08-02T17:04:01.880Z,3.20
2022-08-02T17:06:35.565Z,3.60
2022-08-02T17:09:12.492Z,3.20
2022-08-02T17:12:06.099Z,3.50
2022-08-02T17:14:55.054Z,3.70
2022-08-02T17:20:09.552Z,3.50
2022-08-02T17:22:44.302Z,3.90
2022-08-02T17:25:17.984Z,3.40
2022-08-02T17:27:55.912Z,3.70
2022-08-02T17:30:29.442Z,3.80
2022-08-02T17:33:02.917Z,4.00
2022-08-02T17:35:43.480Z,3.80
2022-08-02T17:38:26.119Z,3.80
2022-08-02T17:41:01.045Z,4.00
2022-08-02T17:43:41.046Z,4.10
2022-08-02T17:46:14.518Z,3.80
2022-08-02T17:49:05.442Z,3.80
2022-08-02T17:52:48.039Z,4.20
2022-08-02T17:54:31.798Z,3.90
2022-08-02T17:57:04.965Z,3.90
2022-08-02T17:59:41.967Z,4.10
2022-08-02T18:02:15.774Z,3.90
2022-08-02T18:04:49.156Z,3.90
2022-08-02T18:07:25.563Z,4.10
2022-08-02T18:10:18.700Z,4.60
2022-08-02T18:12:52.649Z,4.20
2022-08-02T18:15:29.379Z,4.30
2022-08-02T18:18:05.934Z,4.70
2022-08-02T18:20:39.504Z,4.10
2022-08-02T18:23:13.944Z,4.60
2022-08-02T18:25:51.803Z,4.80
2022-08-02T18:28:28.688Z,4.30
2022-08-02T18:31:02.095Z,4.80
2022-08-02T18:36:34.421Z,4.60
2022-08-02T18:39:08.637Z,5.90
2022-08-02T18:41:42.084Z,5.30
2022-08-02T18:44:16.629Z,4.80
2022-08-02T18:46:50.307Z,5.10
2022-08-02T18:49:24.577Z,5.20
2022-08-02T18:52:03.592Z,5.50
2022-08-02T18:54:37.615Z,4.90
2022-08-02T18:58:18.463Z,5.80
2022-08-02T19:00:04.579Z,5.60
2022-08-02T19:02:39.411Z,5.60
2022-08-02T19:05:13.624Z,5.70
2022-08-02T19:07:50.550Z,5.60
2022-08-02T19:10:24.815Z,5.60
2022-08-02T19:12:58.703Z,5.70
2022-08-02T19:15:32.257Z,5.90
2022-08-02T19:18:06.458Z,5.40
2022-08-02T19:20:40.348Z,5.80
2022-08-02T19:23:22.142Z,5.50
2022-08-02T19:25:56.046Z,5.40
2022-08-02T19:28:29.918Z,5.50
2022-08-02T19:31:04.061Z,5.40
2022-08-02T19:34:04.765Z,6.30
2022-08-02T19:36:34.306Z,6.00
2022-08-02T19:39:07.818Z,6.70
2022-08-02T19:41:43.602Z,6.30
2022-08-02T19:44:23.315Z,6.30
2022-08-02T19:47:02.924Z,6.30
2022-08-02T19:49:39.956Z,6.20
2022-08-02T19:52:21.066Z,6.10
2022-08-02T19:54:58.718Z,7.00
2022-08-02T19:57:35.985Z,7.10
2022-08-02T20:00:21.636Z,6.80
2022-08-02T20:02:55.616Z,6.30
2022-08-02T20:05:33.641Z,6.00
2022-08-02T20:08:07.716Z,6.50
2022-08-02T20:10:42.635Z,6.70
2022-08-02T20:13:23.562Z,6.90
2022-08-02T20:15:57.753Z,6.80
2022-08-02T20:18:32.093Z,7.00
2022-08-02T20:21:05.615Z,7.20
2022-08-02T20:23:59.402Z,7.00
2022-08-02T20:26:33.299Z,8.30
2022-08-02T20:29:09.462Z,7.90
2022-08-02T20:31:43.054Z,7.80
2022-08-02T20:34:16.857Z,8.10
2022-08-02T20:36:53.862Z,8.50
2022-08-02T20:39:42.832Z,9.00
2022-08-02T20:42:23.871Z,8.40
2022-08-02T20:44:57.681Z,8.80
2022-08-02T20:47:39.756Z,9.60
2022-08-02T20:50:32.239Z,9.70
2022-08-02T20:53:06.655Z,8.20
2022-08-02T20:55:44.036Z,8.60
2022-08-02T20:58:18.926Z,8.90
2022-08-02T21:00:54.396Z,8.20
2022-08-02T21:03:39.217Z,8.00
2022-08-02T21:06:14.977Z,8.40
2022-08-02T21:08:50.621Z,8.60
2022-08-02T21:11:25.603Z,8.40
2022-08-02T21:14:08.689Z,9.20
2022-08-02T21:16:42.878Z,9.20
2022-08-02T21:19:16.278Z,8.30
2022-08-02T21:21:49.649Z,9.20
2022-08-02T21:24:24.687Z,8.80
2022-08-02T21:26:58.650Z,8.60
2022-08-02T21:29:33.190Z,10.00
2022-08-02T21:32:07.001Z,8.90
2022-08-02T21:34:40.703Z,10.00
2022-08-02T21:37:16.723Z,9.90
2022-08-02T21:39:50.580Z,9.30
2022-08-02T21:42:27.664Z,9.10
2022-08-02T21:45:01.134Z,10.10
2022-08-02T21:47:51.189Z,10.60
2022-08-02T21:50:24.421Z,10.80
2022-08-02T21:52:58.991Z,10.30
2022-08-02T21:56:00.040Z,10.10
2022-08-02T21:58:28.095Z,10.80
2022-08-02T22:01:01.753Z,10.30
2022-08-02T22:03:36.310Z,9.60
2022-08-02T22:06:09.836Z,10.40
2022-08-02T22:08:43.850Z,10.70
2022-08-02T22:11:17.501Z,11.70
2022-08-02T22:13:51.100Z,10.30
2022-08-02T22:16:24.865Z,9.30
2022-08-02T22:18:59.808Z,10.10
2022-08-02T22:21:46.567Z,9.00
2022-08-02T22:24:30.118Z,9.20
2022-08-02T22:27:04.136Z,9.70
2022-08-02T22:29:37.878Z,10.00
2022-08-02T22:32:11.432Z,10.10
2022-08-02T22:34:55.276Z,10.70
2022-08-02T22:40:22.648Z,11.10
2022-08-02T22:42:57.863Z,10.60
2022-08-02T22:48:25.138Z,10.50
2022-08-02T22:50:59.050Z,11.10
2022-08-02T22:53:36.040Z,10.80
2022-08-02T22:56:10.077Z,11.70
2022-08-02T22:59:00.692Z,5.00
2022-08-02T22:59:09.599Z,10.50
2022-08-02T22:59:09.787Z,10.70
2022-08-02T23:01:36.987Z,10.20
2022-08-02T23:04:10.724Z,10.50
2022-08-02T23:06:43.923Z,11.20
2022-08-02T23:09:17.575Z,12.10
2022-08-02T23:11:51.587Z,11.70
2022-08-02T23:14:25.030Z,11.90
2022-08-02T23:17:16.602Z,10.50
2022-08-02T23:19:53.215Z,11.00
2022-08-02T23:22:30.133Z,11.30
2022-08-02T23:25:06.463Z,12.20
2022-08-02T23:27:40.125Z,11.20
2022-08-02T23:30:24.761Z,12.80
2022-08-02T23:32:58.405Z,13.10
2022-08-02T23:35:32.525Z,12.30
2022-08-02T23:38:05.583Z,12.00
2022-08-02T23:40:41.244Z,12.60
2022-08-02T23:43:19.508Z,12.10
2022-08-02T23:45:52.806Z,12.30
2022-08-02T23:48:26.256Z,11.80
2022-08-02T23:50:59.502Z,11.80
2022-08-02T23:53:33.348Z,11.60
2022-08-02T23:56:07.090Z,12.40
2022-08-02T23:58:40.766Z,11.90
